sensor_id;sensor_type;location;lat;lon;timestamp;temperature;humidity
18291;DHT22;9271;48.590;8.866;2022-11-14T00:00:23;6.30;99.90
18291;DHT22;9271;48.590;8.866;2022-11-14T00:02:50;6.50;99.90
18291;DHT22;9271;48.590;8.866;2022-11-14T00:05:18;7.00;99.90
18291;DHT22;9271;48.590;8.866;2022-11-14T00:07:44;7.20;99.90
18291;DHT22;9271;48.590;8.866;2022-11-14T00:10:14;7.40;99.90
18291;DHT22;9271;48.590;8.866;2022-11-14T00:12:40;7.30;99.90
18291;DHT22;9271;48.590;8.866;2022-11-14T00:15:08;7.30;99.90
18291;DHT22;9271;48.590;8.866;2022-11-14T00:17:35;7.30;99.90
18291;DHT22;9271;48.590;8.866;2022-11-14T00:20:03;7.20;99.90
18291;DHT22;9271;48.590;8.866;2022-11-14T00:22:30;7.10;99.90
18291;DHT22;9271;48.590;8.866;2022-11-14T00:24:57;6.90;99.90
18291;DHT22;9271;48.590;8.866;2022-11-14T00:27:25;6.90;99.90
18291;DHT22;9271;48.590;8.866;2022-11-14T00:29:52;7.10;99.90
18291;DHT22;9271;48.590;8.866;2022-11-14T00:32:19;7.20;99.90
18291;DHT22;9271;48.590;8.866;2022-11-14T00:34:47;7.00;99.90
18291;DHT22;9271;48.590;8.866;2022-11-14T00:37:13;7.00;99.90
18291;DHT22;9271;48.590;8.866;2022-11-14T00:39:40;7.40;99.90
18291;DHT22;9271;48.590;8.866;2022-11-14T00:42:07;7.60;99.90
18291;DHT22;9271;48.590;8.866;2022-11-14T00:44:35;7.40;99.90
18291;DHT22;9271;48.590;8.866;2022-11-14T00:47:01;7.60;99.90
18291;DHT22;9271;48.590;8.866;2022-11-14T00:49:28;7.80;99.90
18291;DHT22;9271;48.590;8.866;2022-11-14T00:51:55;7.90;99.90
18291;DHT22;9271;48.590;8.866;2022-11-14T00:54:22;8.10;99.90
18291;DHT22;9271;48.590;8.866;2022-11-14T00:56:48;8.00;99.90
18291;DHT22;9271;48.590;8.866;2022-11-14T00:59:15;7.90;99.90
18291;DHT22;9271;48.590;8.866;2022-11-14T01:01:43;7.80;99.90
18291;DHT22;9271;48.590;8.866;2022-11-14T01:04:10;7.90;99.90
18291;DHT22;9271;48.590;8.866;2022-11-14T01:06:36;7.80;99.90
18291;DHT22;9271;48.590;8.866;2022-11-14T01:09:03;7.90;99.90
18291;DHT22;9271;48.590;8.866;2022-11-14T01:11:30;7.80;99.90
18291;DHT22;9271;48.590;8.866;2022-11-14T01:13:57;7.70;99.90
18291;DHT22;9271;48.590;8.866;2022-11-14T01:16:23;7.40;99.90
18291;DHT22;9271;48.590;8.866;2022-11-14T01:18:51;7.30;99.90
18291;DHT22;9271;48.590;8.866;2022-11-14T01:21:18;7.50;99.90
18291;DHT22;9271;48.590;8.866;2022-11-14T01:23:45;7.60;99.90
18291;DHT22;9271;48.590;8.866;2022-11-14T01:26:13;7.60;99.90
18291;DHT22;9271;48.590;8.866;2022-11-14T01:28:40;7.40;99.90
18291;DHT22;9271;48.590;8.866;2022-11-14T01:31:09;7.30;99.90
18291;DHT22;9271;48.590;8.866;2022-11-14T01:33:36;7.50;99.90
18291;DHT22;9271;48.590;8.866;2022-11-14T01:36:05;7.40;99.90
18291;DHT22;9271;48.590;8.866;2022-11-14T01:38:32;7.00;99.90
18291;DHT22;9271;48.590;8.866;2022-11-14T01:40:59;6.60;99.90
18291;DHT22;9271;48.590;8.866;2022-11-14T01:43:29;7.00;99.90
18291;DHT22;9271;48.590;8.866;2022-11-14T01:45:58;7.20;99.90
18291;DHT22;9271;48.590;8.866;2022-11-14T01:48:30;7.20;99.90
18291;DHT22;9271;48.590;8.866;2022-11-14T01:51:01;7.30;99.90
18291;DHT22;9271;48.590;8.866;2022-11-14T01:53:30;7.60;99.90
18291;DHT22;9271;48.590;8.866;2022-11-14T01:55:59;7.60;99.90
18291;DHT22;9271;48.590;8.866;2022-11-14T01:58:27;7.70;99.90
18291;DHT22;9271;48.590;8.866;2022-11-14T02:00:55;7.70;99.90
18291;DHT22;9271;48.590;8.866;2022-11-14T02:03:23;7.60;99.90
18291;DHT22;9271;48.590;8.866;2022-11-14T02:05:50;7.50;99.90
18291;DHT22;9271;48.590;8.866;2022-11-14T02:08:17;7.50;99.90
18291;DHT22;9271;48.590;8.866;2022-11-14T02:10:46;7.50;99.90
18291;DHT22;9271;48.590;8.866;2022-11-14T02:13:13;7.70;99.90
18291;DHT22;9271;48.590;8.866;2022-11-14T02:15:40;7.60;99.90
18291;DHT22;9271;48.590;8.866;2022-11-14T02:18:06;7.60;99.90
18291;DHT22;9271;48.590;8.866;2022-11-14T02:20:36;7.50;99.90
18291;DHT22;9271;48.590;8.866;2022-11-14T02:23:08;7.40;99.90
18291;DHT22;9271;48.590;8.866;2022-11-14T02:25:34;7.40;99.90
18291;DHT22;9271;48.590;8.866;2022-11-14T02:28:01;7.30;99.90
18291;DHT22;9271;48.590;8.866;2022-11-14T02:30:28;7.30;99.90
18291;DHT22;9271;48.590;8.866;2022-11-14T02:32:55;7.40;99.90
18291;DHT22;9271;48.590;8.866;2022-11-14T02:35:21;7.30;99.90
18291;DHT22;9271;48.590;8.866;2022-11-14T02:37:49;7.30;99.90
18291;DHT22;9271;48.590;8.866;2022-11-14T02:40:16;7.20;99.90
18291;DHT22;9271;48.590;8.866;2022-11-14T02:42:43;7.30;99.90
18291;DHT22;9271;48.590;8.866;2022-11-14T02:45:10;7.20;99.90
18291;DHT22;9271;48.590;8.866;2022-11-14T02:47:37;7.10;99.90
18291;DHT22;9271;48.590;8.866;2022-11-14T02:50:05;7.20;99.90
18291;DHT22;9271;48.590;8.866;2022-11-14T02:52:31;7.00;99.90
18291;DHT22;9271;48.590;8.866;2022-11-14T02:54:59;7.00;99.90
18291;DHT22;9271;48.590;8.866;2022-11-14T02:57:26;6.60;99.90
18291;DHT22;9271;48.590;8.866;2022-11-14T02:59:53;6.50;99.90
18291;DHT22;9271;48.590;8.866;2022-11-14T03:02:20;6.60;99.90
18291;DHT22;9271;48.590;8.866;2022-11-14T03:04:46;6.60;99.90
18291;DHT22;9271;48.590;8.866;2022-11-14T03:07:13;6.60;99.90
18291;DHT22;9271;48.590;8.866;2022-11-14T03:09:40;6.70;99.90
18291;DHT22;9271;48.590;8.866;2022-11-14T03:12:08;6.70;99.90
18291;DHT22;9271;48.590;8.866;2022-11-14T03:14:35;6.60;99.90
18291;DHT22;9271;48.590;8.866;2022-11-14T03:17:02;6.60;99.90
18291;DHT22;9271;48.590;8.866;2022-11-14T03:19:28;6.50;99.90
18291;DHT22;9271;48.590;8.866;2022-11-14T03:21:55;6.50;99.90
18291;DHT22;9271;48.590;8.866;2022-11-14T03:24:22;6.40;99.90
18291;DHT22;9271;48.590;8.866;2022-11-14T03:26:49;6.30;99.90
18291;DHT22;9271;48.590;8.866;2022-11-14T03:29:17;6.50;99.90
18291;DHT22;9271;48.590;8.866;2022-11-14T03:31:43;6.60;99.90
18291;DHT22;9271;48.590;8.866;2022-11-14T03:34:11;6.80;99.90
18291;DHT22;9271;48.590;8.866;2022-11-14T03:36:38;6.90;99.90
18291;DHT22;9271;48.590;8.866;2022-11-14T03:39:05;7.00;99.90
18291;DHT22;9271;48.590;8.866;2022-11-14T03:41:32;6.80;99.90
18291;DHT22;9271;48.590;8.866;2022-11-14T03:43:59;6.50;99.90
18291;DHT22;9271;48.590;8.866;2022-11-14T03:46:27;6.60;99.90
18291;DHT22;9271;48.590;8.866;2022-11-14T03:48:54;6.50;99.90
18291;DHT22;9271;48.590;8.866;2022-11-14T03:51:21;6.50;99.90
18291;DHT22;9271;48.590;8.866;2022-11-14T03:53:47;6.50;99.90
18291;DHT22;9271;48.590;8.866;2022-11-14T03:56:14;6.50;99.90
18291;DHT22;9271;48.590;8.866;2022-11-14T03:58:41;6.50;99.90
18291;DHT22;9271;48.590;8.866;2022-11-14T04:01:07;6.40;99.90
18291;DHT22;9271;48.590;8.866;2022-11-14T04:03:36;6.30;99.90
18291;DHT22;9271;48.590;8.866;2022-11-14T04:06:03;6.10;99.90
18291;DHT22;9271;48.590;8.866;2022-11-14T04:08:30;6.10;99.90
18291;DHT22;9271;48.590;8.866;2022-11-14T04:10:57;6.10;99.90
18291;DHT22;9271;48.590;8.866;2022-11-14T04:13:23;6.10;99.90
18291;DHT22;9271;48.590;8.866;2022-11-14T04:15:53;6.40;99.90
18291;DHT22;9271;48.590;8.866;2022-11-14T04:18:20;6.60;99.90
18291;DHT22;9271;48.590;8.866;2022-11-14T04:20:48;6.60;99.90
18291;DHT22;9271;48.590;8.866;2022-11-14T04:23:15;6.80;99.90
18291;DHT22;9271;48.590;8.866;2022-11-14T04:25:42;6.90;99.90
18291;DHT22;9271;48.590;8.866;2022-11-14T04:28:08;6.80;99.90
18291;DHT22;9271;48.590;8.866;2022-11-14T04:30:35;7.00;99.90
18291;DHT22;9271;48.590;8.866;2022-11-14T04:33:02;7.10;99.90
18291;DHT22;9271;48.590;8.866;2022-11-14T04:35:29;7.10;99.90
18291;DHT22;9271;48.590;8.866;2022-11-14T04:37:57;7.00;99.90
18291;DHT22;9271;48.590;8.866;2022-11-14T04:40:24;7.10;99.90
18291;DHT22;9271;48.590;8.866;2022-11-14T04:42:51;7.00;99.90
18291;DHT22;9271;48.590;8.866;2022-11-14T04:45:17;7.00;99.90
18291;DHT22;9271;48.590;8.866;2022-11-14T04:47:44;6.90;99.90
18291;DHT22;9271;48.590;8.866;2022-11-14T04:50:11;7.10;99.90
18291;DHT22;9271;48.590;8.866;2022-11-14T04:52:37;7.10;99.90
18291;DHT22;9271;48.590;8.866;2022-11-14T04:55:06;7.20;99.90
18291;DHT22;9271;48.590;8.866;2022-11-14T04:57:33;7.10;99.90
18291;DHT22;9271;48.590;8.866;2022-11-14T05:00:00;7.00;99.90
18291;DHT22;9271;48.590;8.866;2022-11-14T05:02:29;7.00;99.90
18291;DHT22;9271;48.590;8.866;2022-11-14T05:04:56;7.20;99.90
18291;DHT22;9271;48.590;8.866;2022-11-14T05:07:23;7.30;99.90
18291;DHT22;9271;48.590;8.866;2022-11-14T05:09:49;7.40;99.90
18291;DHT22;9271;48.590;8.866;2022-11-14T05:12:17;7.30;99.90
18291;DHT22;9271;48.590;8.866;2022-11-14T05:14:44;7.30;99.90
18291;DHT22;9271;48.590;8.866;2022-11-14T05:17:11;7.30;99.90
18291;DHT22;9271;48.590;8.866;2022-11-14T05:19:38;7.30;99.90
18291;DHT22;9271;48.590;8.866;2022-11-14T05:22:04;7.40;99.90
18291;DHT22;9271;48.590;8.866;2022-11-14T05:24:31;7.30;99.90
18291;DHT22;9271;48.590;8.866;2022-11-14T05:26:58;7.40;99.90
18291;DHT22;9271;48.590;8.866;2022-11-14T05:29:26;7.30;99.90
18291;DHT22;9271;48.590;8.866;2022-11-14T05:31:53;6.90;99.90
18291;DHT22;9271;48.590;8.866;2022-11-14T05:34:19;6.70;99.90
18291;DHT22;9271;48.590;8.866;2022-11-14T05:36:46;6.90;99.90
18291;DHT22;9271;48.590;8.866;2022-11-14T05:39:13;7.10;99.90
18291;DHT22;9271;48.590;8.866;2022-11-14T05:41:39;7.30;99.90
18291;DHT22;9271;48.590;8.866;2022-11-14T05:44:06;7.30;99.90
18291;DHT22;9271;48.590;8.866;2022-11-14T05:46:34;7.20;99.90
18291;DHT22;9271;48.590;8.866;2022-11-14T05:49:01;7.10;99.90
18291;DHT22;9271;48.590;8.866;2022-11-14T05:51:28;7.10;99.90
18291;DHT22;9271;48.590;8.866;2022-11-14T05:53:55;6.90;99.90
18291;DHT22;9271;48.590;8.866;2022-11-14T05:56:21;6.60;99.90
18291;DHT22;9271;48.590;8.866;2022-11-14T05:58:48;6.60;99.90
18291;DHT22;9271;48.590;8.866;2022-11-14T06:01:16;6.40;99.90
18291;DHT22;9271;48.590;8.866;2022-11-14T06:03:46;6.30;99.90
18291;DHT22;9271;48.590;8.866;2022-11-14T06:06:17;6.20;99.90
18291;DHT22;9271;48.590;8.866;2022-11-14T06:08:44;6.10;99.90
18291;DHT22;9271;48.590;8.866;2022-11-14T06:11:13;6.00;99.90
18291;DHT22;9271;48.590;8.866;2022-11-14T06:13:40;6.00;99.90
18291;DHT22;9271;48.590;8.866;2022-11-14T06:16:09;5.80;99.90
18291;DHT22;9271;48.590;8.866;2022-11-14T06:18:37;5.50;99.90
18291;DHT22;9271;48.590;8.866;2022-11-14T06:21:07;5.70;99.90
18291;DHT22;9271;48.590;8.866;2022-11-14T06:23:35;5.80;99.90
18291;DHT22;9271;48.590;8.866;2022-11-14T06:26:04;5.90;99.90
18291;DHT22;9271;48.590;8.866;2022-11-14T06:28:31;5.90;99.90
18291;DHT22;9271;48.590;8.866;2022-11-14T06:30:59;5.80;99.90
18291;DHT22;9271;48.590;8.866;2022-11-14T06:33:26;5.70;99.90
18291;DHT22;9271;48.590;8.866;2022-11-14T06:35:57;5.80;99.90
18291;DHT22;9271;48.590;8.866;2022-11-14T06:38:26;5.80;99.90
18291;DHT22;9271;48.590;8.866;2022-11-14T06:41:00;5.80;99.90
18291;DHT22;9271;48.590;8.866;2022-11-14T06:43:27;5.70;99.90
18291;DHT22;9271;48.590;8.866;2022-11-14T06:45:54;5.90;99.90
18291;DHT22;9271;48.590;8.866;2022-11-14T06:48:21;5.90;99.90
18291;DHT22;9271;48.590;8.866;2022-11-14T06:50:50;5.90;99.90
18291;DHT22;9271;48.590;8.866;2022-11-14T06:53:17;5.90;99.90
18291;DHT22;9271;48.590;8.866;2022-11-14T06:55:53;5.70;99.90
18291;DHT22;9271;48.590;8.866;2022-11-14T06:58:20;5.80;99.90
18291;DHT22;9271;48.590;8.866;2022-11-14T07:00:46;5.90;99.90
18291;DHT22;9271;48.590;8.866;2022-11-14T07:03:13;6.10;99.90
18291;DHT22;9271;48.590;8.866;2022-11-14T07:05:40;6.30;99.90
18291;DHT22;9271;48.590;8.866;2022-11-14T07:08:07;6.50;99.90
18291;DHT22;9271;48.590;8.866;2022-11-14T07:10:33;6.50;99.90
18291;DHT22;9271;48.590;8.866;2022-11-14T07:13:01;6.60;99.90
18291;DHT22;9271;48.590;8.866;2022-11-14T07:15:28;6.70;99.90
18291;DHT22;9271;48.590;8.866;2022-11-14T07:17:55;6.50;99.90
18291;DHT22;9271;48.590;8.866;2022-11-14T07:20:22;6.40;99.90
18291;DHT22;9271;48.590;8.866;2022-11-14T07:22:48;6.20;99.90
18291;DHT22;9271;48.590;8.866;2022-11-14T07:25:15;6.50;99.90
18291;DHT22;9271;48.590;8.866;2022-11-14T07:27:42;6.60;99.90
18291;DHT22;9271;48.590;8.866;2022-11-14T07:30:11;6.80;99.90
18291;DHT22;9271;48.590;8.866;2022-11-14T07:32:38;6.80;99.90
18291;DHT22;9271;48.590;8.866;2022-11-14T07:35:05;6.70;99.90
18291;DHT22;9271;48.590;8.866;2022-11-14T07:37:32;6.80;99.90
18291;DHT22;9271;48.590;8.866;2022-11-14T07:39:59;6.70;99.90
18291;DHT22;9271;48.590;8.866;2022-11-14T07:42:27;6.70;99.90
18291;DHT22;9271;48.590;8.866;2022-11-14T07:44:54;6.80;99.90
18291;DHT22;9271;48.590;8.866;2022-11-14T07:47:22;6.80;99.90
18291;DHT22;9271;48.590;8.866;2022-11-14T07:49:49;6.70;99.90
18291;DHT22;9271;48.590;8.866;2022-11-14T07:52:16;6.50;99.90
18291;DHT22;9271;48.590;8.866;2022-11-14T07:54:43;6.50;99.90
18291;DHT22;9271;48.590;8.866;2022-11-14T07:57:09;6.40;99.90
18291;DHT22;9271;48.590;8.866;2022-11-14T07:59:36;6.50;99.90
18291;DHT22;9271;48.590;8.866;2022-11-14T08:02:03;6.60;99.90
18291;DHT22;9271;48.590;8.866;2022-11-14T08:04:31;6.40;99.90
18291;DHT22;9271;48.590;8.866;2022-11-14T08:06:58;6.50;99.90
18291;DHT22;9271;48.590;8.866;2022-11-14T08:09:24;6.60;99.90
18291;DHT22;9271;48.590;8.866;2022-11-14T08:11:51;6.70;99.90
18291;DHT22;9271;48.590;8.866;2022-11-14T08:14:18;6.60;99.90
18291;DHT22;9271;48.590;8.866;2022-11-14T08:16:44;6.40;99.90
18291;DHT22;9271;48.590;8.866;2022-11-14T08:19:11;6.40;99.90
18291;DHT22;9271;48.590;8.866;2022-11-14T08:21:39;6.50;99.90
18291;DHT22;9271;48.590;8.866;2022-11-14T08:24:06;6.30;99.90
18291;DHT22;9271;48.590;8.866;2022-11-14T08:26:33;6.50;99.90
18291;DHT22;9271;48.590;8.866;2022-11-14T08:29:00;6.10;99.90
18291;DHT22;9271;48.590;8.866;2022-11-14T08:31:27;6.30;99.90
18291;DHT22;9271;48.590;8.866;2022-11-14T08:33:54;6.70;99.90
18291;DHT22;9271;48.590;8.866;2022-11-14T08:36:21;7.00;99.90
18291;DHT22;9271;48.590;8.866;2022-11-14T08:38:49;6.60;99.90
18291;DHT22;9271;48.590;8.866;2022-11-14T08:41:15;6.70;99.90
18291;DHT22;9271;48.590;8.866;2022-11-14T08:43:42;6.80;99.90
18291;DHT22;9271;48.590;8.866;2022-11-14T08:46:09;6.90;99.90
18291;DHT22;9271;48.590;8.866;2022-11-14T08:48:36;6.40;99.90
18291;DHT22;9271;48.590;8.866;2022-11-14T08:51:03;6.60;99.90
18291;DHT22;9271;48.590;8.866;2022-11-14T08:53:31;6.90;99.90
18291;DHT22;9271;48.590;8.866;2022-11-14T08:55:59;6.90;99.90
18291;DHT22;9271;48.590;8.866;2022-11-14T08:58:27;7.00;99.90
18291;DHT22;9271;48.590;8.866;2022-11-14T09:00:59;7.40;99.90
18291;DHT22;9271;48.590;8.866;2022-11-14T09:03:25;7.80;99.90
18291;DHT22;9271;48.590;8.866;2022-11-14T09:05:52;8.10;99.90
18291;DHT22;9271;48.590;8.866;2022-11-14T09:08:19;8.10;99.90
18291;DHT22;9271;48.590;8.866;2022-11-14T09:10:46;7.90;99.90
18291;DHT22;9271;48.590;8.866;2022-11-14T09:13:14;7.60;99.90
18291;DHT22;9271;48.590;8.866;2022-11-14T09:15:41;7.30;99.90
18291;DHT22;9271;48.590;8.866;2022-11-14T09:18:08;7.30;99.90
18291;DHT22;9271;48.590;8.866;2022-11-14T09:20:35;7.70;99.90
18291;DHT22;9271;48.590;8.866;2022-11-14T09:23:02;8.00;99.90
18291;DHT22;9271;48.590;8.866;2022-11-14T09:25:29;8.20;99.90
18291;DHT22;9271;48.590;8.866;2022-11-14T09:27:56;8.40;99.90
18291;DHT22;9271;48.590;8.866;2022-11-14T09:30:24;8.40;99.90
18291;DHT22;9271;48.590;8.866;2022-11-14T09:32:51;8.30;99.90
18291;DHT22;9271;48.590;8.866;2022-11-14T09:35:18;8.80;99.90
18291;DHT22;9271;48.590;8.866;2022-11-14T09:37:44;8.90;99.90
18291;DHT22;9271;48.590;8.866;2022-11-14T09:40:12;9.20;99.90
18291;DHT22;9271;48.590;8.866;2022-11-14T09:42:53;9.90;99.90
18291;DHT22;9271;48.590;8.866;2022-11-14T09:45:23;10.70;99.90
18291;DHT22;9271;48.590;8.866;2022-11-14T09:47:54;11.20;99.90
18291;DHT22;9271;48.590;8.866;2022-11-14T09:50:25;11.10;99.90
18291;DHT22;9271;48.590;8.866;2022-11-14T09:52:54;11.00;99.90
18291;DHT22;9271;48.590;8.866;2022-11-14T09:55:23;11.70;99.90
18291;DHT22;9271;48.590;8.866;2022-11-14T09:57:54;11.60;99.50
18291;DHT22;9271;48.590;8.866;2022-11-14T10:00:24;10.90;99.90
18291;DHT22;9271;48.590;8.866;2022-11-14T10:03:02;10.70;99.90
18291;DHT22;9271;48.590;8.866;2022-11-14T10:05:44;10.70;99.90
18291;DHT22;9271;48.590;8.866;2022-11-14T10:08:26;10.40;99.90
18291;DHT22;9271;48.590;8.866;2022-11-14T10:10:58;10.90;99.90
18291;DHT22;9271;48.590;8.866;2022-11-14T10:14:01;11.20;99.90
18291;DHT22;9271;48.590;8.866;2022-11-14T10:16:39;11.30;99.90
18291;DHT22;9271;48.590;8.866;2022-11-14T10:19:14;11.30;99.90
18291;DHT22;9271;48.590;8.866;2022-11-14T10:21:53;11.50;99.90
18291;DHT22;9271;48.590;8.866;2022-11-14T10:24:33;11.60;99.90
18291;DHT22;9271;48.590;8.866;2022-11-14T10:27:09;11.60;99.90
18291;DHT22;9271;48.590;8.866;2022-11-14T10:30:00;11.50;99.90
18291;DHT22;9271;48.590;8.866;2022-11-14T10:32:42;11.50;99.90
18291;DHT22;9271;48.590;8.866;2022-11-14T10:35:14;11.70;99.90
18291;DHT22;9271;48.590;8.866;2022-11-14T10:37:49;11.60;99.90
18291;DHT22;9271;48.590;8.866;2022-11-14T10:40:21;11.80;99.90
18291;DHT22;9271;48.590;8.866;2022-11-14T10:42:50;11.70;99.90
18291;DHT22;9271;48.590;8.866;2022-11-14T10:45:24;11.80;99.90
18291;DHT22;9271;48.590;8.866;2022-11-14T10:47:57;11.90;99.90
18291;DHT22;9271;48.590;8.866;2022-11-14T10:50:28;12.40;99.90
18291;DHT22;9271;48.590;8.866;2022-11-14T10:53:00;12.30;99.90
18291;DHT22;9271;48.590;8.866;2022-11-14T10:55:30;12.40;99.90
18291;DHT22;9271;48.590;8.866;2022-11-14T10:57:57;12.50;99.90
18291;DHT22;9271;48.590;8.866;2022-11-14T11:00:23;12.50;99.90
18291;DHT22;9271;48.590;8.866;2022-11-14T11:02:54;12.50;99.90
18291;DHT22;9271;48.590;8.866;2022-11-14T11:05:23;12.60;99.90
18291;DHT22;9271;48.590;8.866;2022-11-14T11:07:50;12.50;99.90
18291;DHT22;9271;48.590;8.866;2022-11-14T11:10:44;12.20;99.90
18291;DHT22;9271;48.590;8.866;2022-11-14T11:13:30;12.00;99.90
18291;DHT22;9271;48.590;8.866;2022-11-14T11:15:59;12.00;99.90
18291;DHT22;9271;48.590;8.866;2022-11-14T11:18:29;12.20;99.90
18291;DHT22;9271;48.590;8.866;2022-11-14T11:21:05;12.30;99.90
18291;DHT22;9271;48.590;8.866;2022-11-14T11:23:32;12.40;99.90
18291;DHT22;9271;48.590;8.866;2022-11-14T11:26:01;12.20;99.90
18291;DHT22;9271;48.590;8.866;2022-11-14T11:28:32;12.30;99.90
18291;DHT22;9271;48.590;8.866;2022-11-14T11:31:00;12.00;99.90
18291;DHT22;9271;48.590;8.866;2022-11-14T11:33:29;12.10;99.90
18291;DHT22;9271;48.590;8.866;2022-11-14T11:35:59;12.30;99.90
18291;DHT22;9271;48.590;8.866;2022-11-14T11:38:27;12.20;99.90
18291;DHT22;9271;48.590;8.866;2022-11-14T11:41:06;12.20;99.90
18291;DHT22;9271;48.590;8.866;2022-11-14T11:43:41;12.20;99.90
18291;DHT22;9271;48.590;8.866;2022-11-14T11:46:14;12.10;99.90
18291;DHT22;9271;48.590;8.866;2022-11-14T11:48:46;11.90;99.90
18291;DHT22;9271;48.590;8.866;2022-11-14T11:51:18;12.00;99.90
18291;DHT22;9271;48.590;8.866;2022-11-14T11:53:55;12.20;99.90
18291;DHT22;9271;48.590;8.866;2022-11-14T11:56:25;12.30;99.90
18291;DHT22;9271;48.590;8.866;2022-11-14T11:58:59;12.30;99.90
18291;DHT22;9271;48.590;8.866;2022-11-14T12:01:28;12.30;99.90
18291;DHT22;9271;48.590;8.866;2022-11-14T12:03:57;12.80;99.90
18291;DHT22;9271;48.590;8.866;2022-11-14T12:06:26;13.20;99.90
18291;DHT22;9271;48.590;8.866;2022-11-14T12:09:03;13.50;99.90
18291;DHT22;9271;48.590;8.866;2022-11-14T12:11:35;14.50;99.50
18291;DHT22;9271;48.590;8.866;2022-11-14T12:14:31;15.80;96.90
18291;DHT22;9271;48.590;8.866;2022-11-14T12:17:20;18.30;93.80
18291;DHT22;9271;48.590;8.866;2022-11-14T12:20:31;18.40;92.90
18291;DHT22;9271;48.590;8.866;2022-11-14T12:23:17;17.80;91.50
18291;DHT22;9271;48.590;8.866;2022-11-14T12:25:56;18.20;92.20
18291;DHT22;9271;48.590;8.866;2022-11-14T12:28:41;20.30;88.50
18291;DHT22;9271;48.590;8.866;2022-11-14T12:31:13;20.90;87.00
18291;DHT22;9271;48.590;8.866;2022-11-14T12:33:44;21.50;83.20
18291;DHT22;9271;48.590;8.866;2022-11-14T12:36:15;22.40;79.40
18291;DHT22;9271;48.590;8.866;2022-11-14T12:38:44;22.60;77.50
18291;DHT22;9271;48.590;8.866;2022-11-14T12:41:12;21.70;78.20
18291;DHT22;9271;48.590;8.866;2022-11-14T12:43:46;20.40;81.00
18291;DHT22;9271;48.590;8.866;2022-11-14T12:46:13;19.00;85.20
18291;DHT22;9271;48.590;8.866;2022-11-14T12:48:41;19.90;84.50
18291;DHT22;9271;48.590;8.866;2022-11-14T12:54:41;18.80;85.70
18291;DHT22;9271;48.590;8.866;2022-11-14T12:57:09;17.60;90.00
18291;DHT22;9271;48.590;8.866;2022-11-14T13:00:02;16.70;91.30
18291;DHT22;9271;48.590;8.866;2022-11-14T13:05:56;15.80;93.70
18291;DHT22;9271;48.590;8.866;2022-11-14T13:08:44;16.10;93.10
18291;DHT22;9271;48.590;8.866;2022-11-14T13:11:33;15.50;93.90
18291;DHT22;9271;48.590;8.866;2022-11-14T13:14:15;15.90;94.00
18291;DHT22;9271;48.590;8.866;2022-11-14T13:17:09;16.10;92.90
18291;DHT22;9271;48.590;8.866;2022-11-14T13:19:54;16.70;92.70
18291;DHT22;9271;48.590;8.866;2022-11-14T13:22:39;17.20;92.50
18291;DHT22;9271;48.590;8.866;2022-11-14T13:25:18;17.80;90.80
18291;DHT22;9271;48.590;8.866;2022-11-14T13:27:47;18.40;90.30
18291;DHT22;9271;48.590;8.866;2022-11-14T13:30:14;19.70;87.30
18291;DHT22;9271;48.590;8.866;2022-11-14T13:33:02;19.90;86.50
18291;DHT22;9271;48.590;8.866;2022-11-14T13:35:48;18.50;87.60
18291;DHT22;9271;48.590;8.866;2022-11-14T13:39:03;18.30;88.90
18291;DHT22;9271;48.590;8.866;2022-11-14T13:42:03;19.20;87.10
18291;DHT22;9271;48.590;8.866;2022-11-14T13:45:02;18.10;89.10
18291;DHT22;9271;48.590;8.866;2022-11-14T13:48:13;16.90;91.30
18291;DHT22;9271;48.590;8.866;2022-11-14T13:50:48;16.10;92.40
18291;DHT22;9271;48.590;8.866;2022-11-14T13:53:17;16.30;92.50
18291;DHT22;9271;48.590;8.866;2022-11-14T13:55:55;17.10;92.50
18291;DHT22;9271;48.590;8.866;2022-11-14T13:58:46;17.20;91.20
18291;DHT22;9271;48.590;8.866;2022-11-14T14:01:29;16.80;91.60
18291;DHT22;9271;48.590;8.866;2022-11-14T14:04:12;16.20;92.30
18291;DHT22;9271;48.590;8.866;2022-11-14T14:06:54;15.70;93.20
18291;DHT22;9271;48.590;8.866;2022-11-14T14:09:29;15.60;93.50
18291;DHT22;9271;48.590;8.866;2022-11-14T14:12:23;16.00;92.80
18291;DHT22;9271;48.590;8.866;2022-11-14T14:15:02;16.40;92.60
18291;DHT22;9271;48.590;8.866;2022-11-14T14:17:41;17.10;92.30
18291;DHT22;9271;48.590;8.866;2022-11-14T14:20:18;17.00;91.30
18291;DHT22;9271;48.590;8.866;2022-11-14T14:22:55;17.10;91.60
18291;DHT22;9271;48.590;8.866;2022-11-14T14:25:30;16.60;91.50
18291;DHT22;9271;48.590;8.866;2022-11-14T14:28:15;16.00;92.50
18291;DHT22;9271;48.590;8.866;2022-11-14T14:31:00;15.60;93.20
18291;DHT22;9271;48.590;8.866;2022-11-14T14:33:38;15.40;93.20
18291;DHT22;9271;48.590;8.866;2022-11-14T14:36:16;15.10;93.70
18291;DHT22;9271;48.590;8.866;2022-11-14T14:38:43;14.10;95.30
18291;DHT22;9271;48.590;8.866;2022-11-14T14:41:11;13.80;96.00
18291;DHT22;9271;48.590;8.866;2022-11-14T14:43:40;13.50;96.80
18291;DHT22;9271;48.590;8.866;2022-11-14T14:46:08;13.50;96.80
18291;DHT22;9271;48.590;8.866;2022-11-14T14:48:39;13.40;97.70
18291;DHT22;9271;48.590;8.866;2022-11-14T14:51:11;13.90;96.50
18291;DHT22;9271;48.590;8.866;2022-11-14T14:53:50;14.10;96.40
18291;DHT22;9271;48.590;8.866;2022-11-14T14:56:18;15.20;95.60
18291;DHT22;9271;48.590;8.866;2022-11-14T14:58:45;16.40;93.70
18291;DHT22;9271;48.590;8.866;2022-11-14T15:01:13;16.80;92.60
18291;DHT22;9271;48.590;8.866;2022-11-14T15:03:43;17.50;91.70
18291;DHT22;9271;48.590;8.866;2022-11-14T15:06:21;17.60;91.00
18291;DHT22;9271;48.590;8.866;2022-11-14T15:08:54;17.50;90.90
18291;DHT22;9271;48.590;8.866;2022-11-14T15:11:22;17.00;91.30
18291;DHT22;9271;48.590;8.866;2022-11-14T15:13:49;16.40;91.90
18291;DHT22;9271;48.590;8.866;2022-11-14T15:16:19;15.80;93.10
18291;DHT22;9271;48.590;8.866;2022-11-14T15:18:48;15.40;93.80
18291;DHT22;9271;48.590;8.866;2022-11-14T15:21:23;15.00;94.30
18291;DHT22;9271;48.590;8.866;2022-11-14T15:23:57;14.80;95.00
18291;DHT22;9271;48.590;8.866;2022-11-14T15:26:25;14.50;95.20
18291;DHT22;9271;48.590;8.866;2022-11-14T15:29:03;14.10;95.50
18291;DHT22;9271;48.590;8.866;2022-11-14T15:31:31;13.80;96.10
18291;DHT22;9271;48.590;8.866;2022-11-14T15:34:03;13.50;96.40
18291;DHT22;9271;48.590;8.866;2022-11-14T15:36:30;13.30;96.90
18291;DHT22;9271;48.590;8.866;2022-11-14T15:38:59;13.20;97.10
18291;DHT22;9271;48.590;8.866;2022-11-14T15:41:27;13.10;97.00
18291;DHT22;9271;48.590;8.866;2022-11-14T15:43:55;12.80;97.70
18291;DHT22;9271;48.590;8.866;2022-11-14T15:46:41;12.60;98.00
18291;DHT22;9271;48.590;8.866;2022-11-14T15:49:25;12.40;98.40
18291;DHT22;9271;48.590;8.866;2022-11-14T15:51:54;12.30;98.50
18291;DHT22;9271;48.590;8.866;2022-11-14T15:54:27;12.10;98.90
18291;DHT22;9271;48.590;8.866;2022-11-14T15:56:55;12.00;99.20
18291;DHT22;9271;48.590;8.866;2022-11-14T15:59:23;11.90;99.30
18291;DHT22;9271;48.590;8.866;2022-11-14T16:01:53;11.80;99.60
18291;DHT22;9271;48.590;8.866;2022-11-14T16:04:24;11.70;99.70
18291;DHT22;9271;48.590;8.866;2022-11-14T16:06:54;11.60;99.90
18291;DHT22;9271;48.590;8.866;2022-11-14T16:09:21;11.70;99.90
18291;DHT22;9271;48.590;8.866;2022-11-14T16:11:48;11.60;99.80
18291;DHT22;9271;48.590;8.866;2022-11-14T16:14:15;11.60;99.70
18291;DHT22;9271;48.590;8.866;2022-11-14T16:16:42;11.70;99.60
18291;DHT22;9271;48.590;8.866;2022-11-14T16:19:10;11.70;99.80
18291;DHT22;9271;48.590;8.866;2022-11-14T16:21:38;11.70;99.60